createdAt,value
2019-03-26T00:01:53.288Z,100503.02
2019-03-26T00:04:20.237Z,100502.13
2019-03-26T00:06:47.550Z,100513.95
2019-03-26T00:09:14.442Z,100506.80
2019-03-26T00:11:41.415Z,100519.01
2019-03-26T00:14:08.278Z,100518.20
2019-03-26T00:16:35.462Z,100516.92
2019-03-26T00:19:02.737Z,100527.05
2019-03-26T00:21:30.182Z,100533.79
2019-03-26T00:23:57.143Z,100527.44
2019-03-26T00:26:24.406Z,100533.36
2019-03-26T00:28:51.350Z,100535.84
2019-03-26T00:31:18.575Z,100537.98
2019-03-26T00:33:45.480Z,100535.89
2019-03-26T00:36:12.436Z,100533.75
2019-03-26T00:38:39.447Z,100539.23
2019-03-26T00:41:06.369Z,100546.43
2019-03-26T00:43:33.609Z,100546.80
2019-03-26T00:46:00.481Z,100562.00
2019-03-26T00:48:27.716Z,100561.12
2019-03-26T00:50:54.672Z,100566.61
2019-03-26T00:53:22.006Z,100567.03
2019-03-26T00:55:48.877Z,100570.40
2019-03-26T00:58:15.761Z,100562.00
2019-03-26T01:00:43.053Z,100567.94
2019-03-26T01:03:10.013Z,100561.15
2019-03-26T01:05:37.356Z,100573.81
2019-03-26T01:08:04.309Z,100577.22
2019-03-26T01:10:31.269Z,100571.73
2019-03-26T01:12:58.490Z,100577.19
2019-03-26T01:15:25.380Z,100582.64
2019-03-26T01:17:52.621Z,100578.84
2019-03-26T01:20:19.533Z,100588.13
2019-03-26T01:22:46.432Z,100590.66
2019-03-26T01:25:13.315Z,100595.71
2019-03-26T01:27:40.574Z,100588.98
2019-03-26T01:30:07.725Z,100583.52
2019-03-26T01:32:34.632Z,100584.38
2019-03-26T01:35:01.621Z,100588.20
2019-03-26T01:37:29.200Z,100588.23
2019-03-26T01:39:56.097Z,100590.38
2019-03-26T01:42:23.062Z,100592.47
2019-03-26T01:44:49.937Z,100600.91
2019-03-26T01:47:16.904Z,100597.52
2019-03-26T01:49:45.143Z,100596.64
2019-03-26T01:52:12.120Z,100599.63
2019-03-26T01:54:39.005Z,100599.24
2019-03-26T01:57:06.174Z,100608.92
2019-03-26T01:59:33.050Z,100613.58
2019-03-26T02:01:59.980Z,100610.19
2019-03-26T02:04:26.928Z,100604.30
2019-03-26T02:06:53.853Z,100610.19
2019-03-26T02:09:20.805Z,100608.95
2019-03-26T02:11:47.735Z,100617.83
2019-03-26T02:14:14.640Z,100612.74
2019-03-26T02:16:41.962Z,100611.93
2019-03-26T02:19:08.854Z,100616.17
2019-03-26T02:21:36.161Z,100623.78
2019-03-26T02:24:03.414Z,100615.37
2019-03-26T02:26:30.369Z,100616.17
2019-03-26T02:28:57.342Z,100614.50
2019-03-26T02:31:24.289Z,100622.92
2019-03-26T02:33:51.605Z,100616.56
2019-03-26T02:36:18.861Z,100625.03
2019-03-26T02:38:45.799Z,100622.91
2019-03-26T02:41:13.067Z,100630.10
2019-03-26T02:43:40.026Z,100633.90
2019-03-26T02:46:06.980Z,100631.79
2019-03-26T02:48:33.937Z,100631.84
2019-03-26T02:51:00.840Z,100635.20
2019-03-26T02:53:28.093Z,100630.52
2019-03-26T02:55:55.077Z,100625.45
2019-03-26T02:58:22.293Z,100624.61
2019-03-26T03:00:49.289Z,100622.08
2019-03-26T03:03:16.193Z,100630.10
2019-03-26T03:05:43.111Z,100632.63
2019-03-26T03:08:10.083Z,100639.83
2019-03-26T03:10:37.081Z,100640.22
2019-03-26T03:13:04.469Z,100643.16
2019-03-26T03:15:31.425Z,100642.36
2019-03-26T03:17:58.655Z,100653.77
2019-03-26T03:20:25.921Z,100649.52
2019-03-26T03:22:53.473Z,100651.63
2019-03-26T03:25:20.743Z,100651.63
2019-03-26T03:27:47.696Z,100650.78
2019-03-26T03:30:14.606Z,100655.03
2019-03-26T03:32:41.569Z,100648.22
2019-03-26T03:35:08.945Z,100652.05
2019-03-26T03:37:36.172Z,100651.23
2019-03-26T03:40:03.065Z,100650.37
2019-03-26T03:42:30.034Z,100655.04
2019-03-26T03:44:56.996Z,100653.77
2019-03-26T03:47:24.262Z,100654.58
2019-03-26T03:49:51.124Z,100655.84
2019-03-26T03:52:18.085Z,100651.63
2019-03-26T03:54:45.035Z,100656.70
2019-03-26T03:57:12.012Z,100655.04
2019-03-26T03:59:38.972Z,100650.78
2019-03-26T04:02:05.959Z,100646.16
2019-03-26T04:04:33.181Z,100648.24
2019-03-26T04:07:00.434Z,100655.01
2019-03-26T04:09:27.327Z,100655.84
2019-03-26T04:11:54.442Z,100662.63
2019-03-26T04:14:21.392Z,100660.12
2019-03-26T04:16:48.398Z,100654.64
2019-03-26T04:19:15.352Z,100662.27
2019-03-26T04:21:43.301Z,100669.88
2019-03-26T04:24:10.268Z,100672.39
2019-03-26T04:26:37.308Z,100665.61
2019-03-26T04:29:05.239Z,100666.89
2019-03-26T04:31:32.458Z,100671.96
2019-03-26T04:33:59.410Z,100674.49
2019-03-26T04:36:26.778Z,100672.42
2019-03-26T04:38:53.749Z,100663.55
2019-03-26T04:41:20.876Z,100675.78
2019-03-26T04:43:47.872Z,100678.77
2019-03-26T04:46:15.161Z,100675.36
2019-03-26T04:48:42.661Z,100669.03
2019-03-26T04:51:09.689Z,100669.05
2019-03-26T04:53:36.590Z,100670.78
2019-03-26T04:56:03.614Z,100672.07
2019-03-26T04:58:30.552Z,100666.99
2019-03-26T05:00:57.750Z,100671.20
2019-03-26T05:03:25.011Z,100669.95
2019-03-26T05:05:52.006Z,100671.28
2019-03-26T05:08:18.914Z,100674.28
2019-03-26T05:10:49.056Z,100667.94
2019-03-26T05:13:15.115Z,100672.61
2019-03-26T05:15:42.042Z,100678.08
2019-03-26T05:18:08.948Z,100670.89
2019-03-26T05:20:35.936Z,100672.19
2019-03-26T05:23:02.904Z,100674.80
2019-03-26T05:25:30.087Z,100676.48
2019-03-26T05:27:57.056Z,100676.91
2019-03-26T05:30:24.377Z,100676.49
2019-03-26T05:32:51.359Z,100675.69
2019-03-26T05:35:19.337Z,100675.69
2019-03-26T05:37:47.054Z,100668.92
2019-03-26T05:40:13.954Z,100670.64
2019-03-26T05:42:40.924Z,100672.80
2019-03-26T05:45:07.902Z,100677.42
2019-03-26T05:47:34.865Z,100678.69
2019-03-26T05:50:01.806Z,100679.13
2019-03-26T05:52:28.701Z,100676.61
2019-03-26T05:54:55.874Z,100677.48
2019-03-26T05:57:22.861Z,100677.50
2019-03-26T05:59:49.824Z,100674.11
2019-03-26T06:02:18.111Z,100675.88
2019-03-26T06:04:45.494Z,100675.88
2019-03-26T06:07:12.771Z,100682.23
2019-03-26T06:09:40.024Z,100683.91
2019-03-26T06:12:07.106Z,100687.30
2019-03-26T06:14:33.999Z,100689.41
2019-03-26T06:17:00.942Z,100682.64
2019-03-26T06:19:27.818Z,100682.23
2019-03-26T06:21:54.677Z,100690.27
2019-03-26T06:24:22.520Z,100687.31
2019-03-26T06:26:49.445Z,100689.41
2019-03-26T06:29:16.437Z,100693.66
2019-03-26T06:31:43.461Z,100689.41
2019-03-26T06:34:10.910Z,100687.72
2019-03-26T06:36:37.874Z,100691.12
2019-03-26T06:39:05.206Z,100693.67
2019-03-26T06:41:32.169Z,100688.61
2019-03-26T06:43:59.154Z,100695.38
2019-03-26T06:46:26.089Z,100699.62
2019-03-26T06:48:52.990Z,100697.09
2019-03-26T06:51:19.862Z,100702.59
2019-03-26T06:53:46.835Z,100706.00
2019-03-26T06:56:14.154Z,100709.41
2019-03-26T06:58:41.118Z,100708.14
2019-03-26T07:01:08.433Z,100705.60
2019-03-26T07:03:35.316Z,100695.05
2019-03-26T07:06:02.534Z,100700.56
2019-03-26T07:08:29.520Z,100687.93
2019-03-26T07:10:56.403Z,100686.67
2019-03-26T07:13:23.304Z,100699.82
2019-03-26T07:15:50.513Z,100699.82
2019-03-26T07:18:17.389Z,100704.05
2019-03-26T07:20:44.334Z,100701.92
2019-03-26T07:23:11.291Z,100697.28
2019-03-26T07:25:38.504Z,100701.50
2019-03-26T07:28:05.452Z,100709.13
2019-03-26T07:30:32.324Z,100707.03
2019-03-26T07:32:59.213Z,100714.66
2019-03-26T07:35:26.392Z,100723.11
2019-03-26T07:37:53.649Z,100726.50
2019-03-26T07:40:20.621Z,100729.45
2019-03-26T07:42:47.840Z,100729.45
2019-03-26T07:45:15.093Z,100747.22
2019-03-26T07:47:41.977Z,100751.85
2019-03-26T07:50:08.955Z,100749.74
2019-03-26T07:52:35.969Z,100751.81
2019-03-26T07:55:03.270Z,100745.87
2019-03-26T07:57:30.436Z,100751.36
2019-03-26T07:59:57.416Z,100758.14
2019-03-26T08:02:24.736Z,100763.63
2019-03-26T08:04:51.623Z,100762.76
2019-03-26T08:07:18.830Z,100762.74
2019-03-26T08:09:45.742Z,100761.06
2019-03-26T08:12:12.669Z,100758.95
2019-03-26T08:14:39.598Z,100757.28
2019-03-26T08:17:06.838Z,100753.47
2019-03-26T08:19:33.795Z,100749.65
2019-03-26T08:22:00.661Z,100756.00
2019-03-26T08:24:27.545Z,100758.55
2019-03-26T08:26:54.830Z,100755.14
2019-03-26T08:29:21.795Z,100761.90
2019-03-26T08:31:49.224Z,100753.86
2019-03-26T08:34:16.168Z,100746.66
2019-03-26T08:36:43.117Z,100746.66
2019-03-26T08:39:10.350Z,100747.92
2019-03-26T08:41:37.322Z,100759.79
2019-03-26T08:44:04.331Z,100749.17
2019-03-26T08:46:31.214Z,100752.58
2019-03-26T08:48:58.087Z,100752.17
2019-03-26T08:51:25.047Z,100750.46
2019-03-26T08:53:51.934Z,100754.26
2019-03-26T08:56:19.979Z,100753.38
2019-03-26T08:58:47.246Z,100765.65
2019-03-26T09:01:14.504Z,100762.26
2019-03-26T09:03:41.473Z,100752.11
2019-03-26T09:06:08.382Z,100756.36
2019-03-26T09:08:35.656Z,100747.00
2019-03-26T09:11:02.645Z,100755.01
2019-03-26T09:13:29.599Z,100757.98
2019-03-26T09:15:56.593Z,100757.15
2019-03-26T09:18:23.849Z,100756.34
2019-03-26T09:20:50.798Z,100753.38
2019-03-26T09:23:18.032Z,100762.27
2019-03-26T09:25:44.930Z,100754.22
2019-03-26T09:28:12.118Z,100763.92
2019-03-26T09:30:39.394Z,100774.53
2019-03-26T09:33:06.565Z,100763.52
2019-03-26T09:35:33.516Z,100768.59
2019-03-26T09:38:00.388Z,100776.20
2019-03-26T09:40:27.265Z,100778.72
2019-03-26T09:42:54.232Z,100777.44
2019-03-26T09:45:21.185Z,100786.30
2019-03-26T09:47:48.534Z,100770.61
2019-03-26T09:50:15.492Z,100769.33
2019-03-26T09:52:42.378Z,100783.72
2019-03-26T09:55:09.259Z,100777.73
2019-03-26T09:57:36.504Z,100776.86
2019-03-26T10:00:03.402Z,100776.44
2019-03-26T10:02:31.397Z,100772.63
2019-03-26T10:05:12.747Z,100777.28
2019-03-26T10:07:39.707Z,100771.46
2019-03-26T10:10:06.624Z,100768.44
2019-03-26T10:12:34.061Z,100769.66
2019-03-26T10:15:01.022Z,100769.66
2019-03-26T10:17:28.253Z,100766.36
2019-03-26T10:19:55.503Z,100761.31
2019-03-26T10:22:23.562Z,100766.42
2019-03-26T10:24:50.520Z,100763.09
2019-03-26T10:27:18.611Z,100763.09
2019-03-26T10:29:45.579Z,100758.42
2019-03-26T10:32:12.526Z,100768.19
2019-03-26T10:34:39.836Z,100762.31
2019-03-26T10:37:06.801Z,100753.44
2019-03-26T10:39:33.779Z,100760.62
2019-03-26T10:42:01.103Z,100759.41
2019-03-26T10:44:28.333Z,100759.04
2019-03-26T10:46:55.254Z,100749.74
2019-03-26T10:49:22.211Z,100749.30
2019-03-26T10:51:49.426Z,100741.67
2019-03-26T10:54:16.974Z,100740.40
2019-03-26T10:56:43.919Z,100730.23
2019-03-26T10:59:10.818Z,100728.11
2019-03-26T11:01:38.088Z,100736.17
2019-03-26T11:04:07.535Z,100737.44
2019-03-26T11:06:33.635Z,100736.58
2019-03-26T11:09:00.969Z,100748.81
2019-03-26T11:11:29.485Z,100733.64
2019-03-26T11:13:58.794Z,100729.91
2019-03-26T11:16:25.403Z,100727.00
2019-03-26T11:18:52.654Z,100736.78
2019-03-26T11:21:19.905Z,100732.12
2019-03-26T11:23:46.872Z,100723.19
2019-03-26T11:26:13.998Z,100716.79
2019-03-26T11:28:41.233Z,100718.06
2019-03-26T11:31:08.116Z,100719.30
2019-03-26T11:33:36.488Z,100725.25
2019-03-26T11:36:03.732Z,100719.71
2019-03-26T11:38:30.620Z,100712.86
2019-03-26T11:40:57.567Z,100711.13
2019-03-26T11:43:25.510Z,100716.17
2019-03-26T11:45:52.726Z,100696.20
2019-03-26T11:48:19.618Z,100704.67
2019-03-26T11:50:46.863Z,100705.48
2019-03-26T11:53:13.805Z,100700.74
2019-03-26T11:55:40.834Z,100694.87
2019-03-26T11:58:07.757Z,100706.84
2019-03-26T12:00:34.925Z,100708.19
2019-03-26T12:03:01.826Z,100705.66
2019-03-26T12:05:28.716Z,100706.95
2019-03-26T12:07:55.596Z,100692.11
2019-03-26T12:10:22.579Z,100687.91
2019-03-26T12:12:49.585Z,100689.59
2019-03-26T12:15:16.521Z,100679.02
2019-03-26T12:17:43.752Z,100678.62
2019-03-26T12:20:10.720Z,100682.02
2019-03-26T12:22:37.770Z,100663.38
2019-03-26T12:25:04.642Z,100686.27
2019-03-26T12:27:31.520Z,100667.16
2019-03-26T12:29:58.524Z,100665.48
2019-03-26T12:32:25.514Z,100648.08
2019-03-26T12:34:52.477Z,100651.47
2019-03-26T12:37:19.782Z,100661.23
2019-03-26T12:39:58.915Z,100645.55
2019-03-26T12:42:15.299Z,100663.80
2019-03-26T12:44:42.616Z,100665.54
2019-03-26T12:47:09.503Z,100654.53
2019-03-26T12:49:37.738Z,100658.35
2019-03-26T12:52:04.676Z,100651.54
2019-03-26T12:54:31.569Z,100645.62
2019-03-26T12:56:58.532Z,100646.45
2019-03-26T12:59:26.785Z,100635.44
2019-03-26T13:01:54.177Z,100623.55
2019-03-26T13:04:21.049Z,100624.84
2019-03-26T13:06:47.926Z,100624.39
2019-03-26T13:09:15.134Z,100618.89
2019-03-26T13:11:42.120Z,100616.75
2019-03-26T13:14:09.505Z,100618.47
2019-03-26T13:16:36.449Z,100625.68
2019-03-26T13:19:03.404Z,100634.58
2019-03-26T13:21:30.672Z,100632.05
2019-03-26T13:23:57.615Z,100629.50
2019-03-26T13:26:24.518Z,100632.90
2019-03-26T13:28:51.834Z,100634.17
2019-03-26T13:31:18.829Z,100626.10
2019-03-26T13:33:46.020Z,100635.86
2019-03-26T13:36:13.274Z,100627.37
2019-03-26T13:38:40.217Z,100623.55
2019-03-26T13:41:07.268Z,100614.67
2019-03-26T13:43:34.167Z,100618.48
2019-03-26T13:46:01.449Z,100613.84
2019-03-26T13:48:28.469Z,100615.92
2019-03-26T13:50:55.661Z,100616.37
2019-03-26T13:53:22.631Z,100614.23
2019-03-26T13:55:49.585Z,100611.69
2019-03-26T13:58:16.941Z,100622.27
2019-03-26T14:00:43.845Z,100624.83
2019-03-26T14:03:11.004Z,100627.83
2019-03-26T14:05:37.977Z,100628.66
2019-03-26T14:08:04.858Z,100614.24
2019-03-26T14:10:40.897Z,100614.64
2019-03-26T14:13:00.312Z,100618.05
2019-03-26T14:15:27.364Z,100610.43
2019-03-26T14:17:54.610Z,100621.87
2019-03-26T14:20:21.473Z,100608.30
2019-03-26T14:22:48.718Z,100616.37
2019-03-26T14:25:15.681Z,100618.04
2019-03-26T14:27:42.940Z,100612.12
2019-03-26T14:30:09.887Z,100610.84
2019-03-26T14:32:36.855Z,100614.22
2019-03-26T14:35:03.841Z,100610.00
2019-03-26T14:37:30.822Z,100614.22
2019-03-26T14:39:58.297Z,100611.27
2019-03-26T14:42:25.629Z,100612.11
2019-03-26T14:44:52.878Z,100612.12
2019-03-26T14:47:20.173Z,100617.63
2019-03-26T14:49:47.094Z,100608.75
2019-03-26T14:52:14.110Z,100618.06
2019-03-26T14:54:41.053Z,100609.17
2019-03-26T14:57:07.952Z,100616.79
2019-03-26T14:59:34.912Z,100604.06
2019-03-26T15:02:01.875Z,100606.18
2019-03-26T15:04:28.763Z,100604.03
2019-03-26T15:06:55.676Z,100604.89
2019-03-26T15:09:22.731Z,100597.66
2019-03-26T15:11:49.589Z,100597.22
2019-03-26T15:14:16.829Z,100600.65
2019-03-26T15:16:44.767Z,100606.17
2019-03-26T15:19:11.736Z,100600.23
2019-03-26T15:21:39.506Z,100601.48
2019-03-26T15:24:06.760Z,100603.20
2019-03-26T15:26:35.138Z,100599.77
2019-03-26T15:29:02.292Z,100599.34
2019-03-26T15:31:29.408Z,100595.53
2019-03-26T15:33:56.365Z,100595.58
2019-03-26T15:36:23.329Z,100585.84
2019-03-26T15:38:50.297Z,100590.48
2019-03-26T15:41:21.752Z,100589.20
2019-03-26T15:43:45.902Z,100597.28
2019-03-26T15:46:13.066Z,100598.97
2019-03-26T15:48:40.024Z,100584.98
2019-03-26T15:51:07.383Z,100586.24
2019-03-26T15:53:34.452Z,100590.50
2019-03-26T15:56:01.329Z,100586.66
2019-03-26T15:58:28.756Z,100582.45
2019-03-26T16:00:55.984Z,100587.53
2019-03-26T16:03:22.979Z,100587.12
2019-03-26T16:05:50.269Z,100592.59
2019-03-26T16:08:17.266Z,100594.30
2019-03-26T16:10:44.470Z,100593.45
2019-03-26T16:13:11.719Z,100586.23
2019-03-26T16:15:44.077Z,100594.73
2019-03-26T16:18:07.269Z,100594.31
2019-03-26T16:20:34.334Z,100602.38
2019-03-26T16:23:01.541Z,100601.11
2019-03-26T16:25:29.163Z,100599.42
2019-03-26T16:28:02.042Z,100603.23
2019-03-26T16:30:30.926Z,100598.56
2019-03-26T16:32:58.886Z,100604.52
2019-03-26T16:35:25.761Z,100601.55
2019-03-26T16:37:52.986Z,100596.05
2019-03-26T16:40:19.945Z,100594.79
2019-03-26T16:42:47.167Z,100602.41
2019-03-26T16:45:14.133Z,100597.31
2019-03-26T16:47:41.481Z,100596.91
2019-03-26T16:50:08.708Z,100602.84
2019-03-26T16:52:35.681Z,100600.31
2019-03-26T16:55:03.011Z,100608.80
2019-03-26T16:57:30.363Z,100604.13
2019-03-26T16:59:57.706Z,100610.90
2019-03-26T17:02:24.864Z,100604.13
2019-03-26T17:04:52.122Z,100607.95
2019-03-26T17:07:19.073Z,100611.33
2019-03-26T17:09:45.952Z,100590.17
2019-03-26T17:12:12.881Z,100610.48
2019-03-26T17:14:39.778Z,100624.05
2019-03-26T17:17:06.737Z,100617.70
2019-03-26T17:19:33.993Z,100624.91
2019-03-26T17:22:01.251Z,100638.00
2019-03-26T17:24:28.154Z,100633.76
2019-03-26T17:26:55.341Z,100638.43
2019-03-26T17:29:22.254Z,100641.38
2019-03-26T17:31:49.430Z,100637.98
2019-03-26T17:34:16.336Z,100641.38
2019-03-26T17:36:43.352Z,100631.21
2019-03-26T17:39:10.249Z,100638.02
2019-03-26T17:41:37.155Z,100642.23
2019-03-26T17:44:04.477Z,100646.45
2019-03-26T17:46:35.541Z,100651.55
2019-03-26T17:49:02.806Z,100648.18
2019-03-26T17:51:29.769Z,100649.86
2019-03-26T17:53:56.723Z,100661.71
2019-03-26T17:56:24.018Z,100665.52
2019-03-26T17:58:50.913Z,100673.15
2019-03-26T18:01:17.855Z,100670.19
2019-03-26T18:03:44.874Z,100671.02
2019-03-26T18:06:12.152Z,100676.95
2019-03-26T18:08:39.201Z,100683.31
2019-03-26T18:11:06.526Z,100680.36
2019-03-26T18:13:33.515Z,100680.77
2019-03-26T18:16:00.558Z,100684.58
2019-03-26T18:18:27.425Z,100693.88
2019-03-26T18:20:54.701Z,100693.02
2019-03-26T18:23:21.597Z,100699.82
2019-03-26T18:25:48.794Z,100700.23
2019-03-26T18:28:15.664Z,100696.88
2019-03-26T18:30:42.548Z,100699.41
2019-03-26T18:33:09.507Z,100708.30
2019-03-26T18:35:36.457Z,100702.77
2019-03-26T18:38:03.650Z,100709.13
2019-03-26T18:40:30.995Z,100720.14
2019-03-26T18:42:58.253Z,100719.28
2019-03-26T18:45:25.161Z,100726.89
2019-03-26T18:47:52.547Z,100721.36
2019-03-26T18:50:19.787Z,100728.58
2019-03-26T18:52:46.934Z,100720.09
2019-03-26T18:55:14.218Z,100723.49
2019-03-26T18:57:41.255Z,100718.00
2019-03-26T19:00:08.216Z,100723.48
2019-03-26T19:02:35.579Z,100724.75
2019-03-26T19:05:02.626Z,100722.63
2019-03-26T19:07:29.669Z,100729.84
2019-03-26T19:09:56.903Z,100731.11
2019-03-26T19:12:24.248Z,100728.97
2019-03-26T19:14:51.509Z,100731.10
2019-03-26T19:17:18.484Z,100734.05
2019-03-26T19:19:45.699Z,100729.83
2019-03-26T19:22:12.597Z,100736.59
2019-03-26T19:24:39.909Z,100731.52
2019-03-26T19:27:08.138Z,100733.24
2019-03-26T19:29:35.065Z,100734.92
2019-03-26T19:32:02.280Z,100736.59
2019-03-26T19:34:29.366Z,100737.00
2019-03-26T19:36:56.325Z,100747.16
2019-03-26T19:39:24.251Z,100746.76
2019-03-26T19:41:51.623Z,100745.48
2019-03-26T19:44:18.572Z,100742.53
2019-03-26T19:46:45.910Z,100744.66
2019-03-26T19:49:13.152Z,100751.02
2019-03-26T19:51:40.416Z,100753.55
2019-03-26T19:54:07.653Z,100756.50
2019-03-26T19:56:34.642Z,100762.41
2019-03-26T19:59:01.580Z,100772.56
2019-03-26T20:01:28.794Z,100761.58
2019-03-26T20:03:55.677Z,100776.81
2019-03-26T20:06:23.103Z,100774.70
2019-03-26T20:08:50.052Z,100785.30
2019-03-26T20:11:17.101Z,100786.13
2019-03-26T20:13:44.066Z,100786.54
2019-03-26T20:16:10.985Z,100784.45
2019-03-26T20:18:37.873Z,100783.58
2019-03-26T20:21:05.184Z,100792.47
2019-03-26T20:23:32.120Z,100794.60
2019-03-26T20:25:59.384Z,100790.34
2019-03-26T20:28:26.999Z,100800.55
2019-03-26T20:30:55.054Z,100803.91
2019-03-26T20:33:21.997Z,100803.91
2019-03-26T20:35:48.948Z,100801.37
2019-03-26T20:38:16.156Z,100804.77
2019-03-26T20:40:43.411Z,100803.05
2019-03-26T20:43:10.465Z,100813.20
2019-03-26T20:45:37.413Z,100817.00
2019-03-26T20:48:04.485Z,100817.44
2019-03-26T20:50:31.431Z,100817.84
2019-03-26T20:52:58.847Z,100819.11
2019-03-26T20:55:25.828Z,100822.91
2019-03-26T20:57:53.261Z,100822.91
2019-03-26T21:00:20.246Z,100829.27
2019-03-26T21:02:47.202Z,100826.73
2019-03-26T21:05:14.520Z,100825.46
2019-03-26T21:07:42.002Z,100831.36
2019-03-26T21:10:08.951Z,100835.60
2019-03-26T21:12:36.366Z,100837.30
2019-03-26T21:15:03.618Z,100835.14
2019-03-26T21:17:31.041Z,100840.67
2019-03-26T21:19:58.994Z,100850.37
2019-03-26T21:22:25.948Z,100846.58
2019-03-26T21:24:53.367Z,100854.19
2019-03-26T21:27:20.581Z,100854.20
2019-03-26T21:29:47.730Z,100858.45
2019-03-26T21:32:14.883Z,100856.32
2019-03-26T21:34:42.198Z,100860.54
2019-03-26T21:37:09.352Z,100858.84
2019-03-26T21:39:36.250Z,100866.88
2019-03-26T21:42:03.226Z,100860.52
2019-03-26T21:44:30.535Z,100864.34
2019-03-26T21:46:57.576Z,100874.11
2019-03-26T21:49:24.667Z,100875.37
2019-03-26T21:51:51.733Z,100871.56
2019-03-26T21:54:18.695Z,100880.05
2019-03-26T21:56:45.899Z,100873.25
2019-03-26T21:59:12.845Z,100872.44
2019-03-26T22:01:39.717Z,100871.58
2019-03-26T22:04:07.038Z,100876.64
2019-03-26T22:06:34.298Z,100877.91
2019-03-26T22:09:01.208Z,100874.95
2019-03-26T22:11:30.033Z,100879.59
2019-03-26T22:13:57.018Z,100873.69
2019-03-26T22:16:24.039Z,100882.14
2019-03-26T22:18:51.018Z,100887.22
2019-03-26T22:21:17.921Z,100884.27
2019-03-26T22:23:44.850Z,100891.88
2019-03-26T22:26:11.819Z,100890.60
2019-03-26T22:28:38.698Z,100887.20
2019-03-26T22:31:06.024Z,100880.03
2019-03-26T22:33:33.354Z,100885.95
2019-03-26T22:36:00.331Z,100886.41
2019-03-26T22:38:27.283Z,100887.67
2019-03-26T22:40:54.260Z,100888.09
2019-03-26T22:43:21.205Z,100888.94
2019-03-26T22:45:48.393Z,100889.76
2019-03-26T22:48:15.654Z,100892.75
2019-03-26T22:50:42.622Z,100895.69
2019-03-26T22:53:09.944Z,100896.95
2019-03-26T22:55:36.957Z,100895.27
2019-03-26T22:58:04.237Z,100901.16
2019-03-26T23:00:31.393Z,100901.16
2019-03-26T23:03:00.180Z,100907.09
2019-03-26T23:05:27.422Z,100907.06
2019-03-26T23:07:54.574Z,100905.34
2019-03-26T23:10:21.833Z,100907.05
2019-03-26T23:12:48.816Z,100903.25
2019-03-26T23:15:16.137Z,100908.73
2019-03-26T23:17:43.161Z,100916.75
2019-03-26T23:20:10.442Z,100907.04
2019-03-26T23:22:37.298Z,100910.80
2019-03-26T23:25:04.532Z,100915.42
2019-03-26T23:27:31.490Z,100917.09
2019-03-26T23:29:58.718Z,100909.88
2019-03-26T23:32:25.608Z,100908.61
2019-03-26T23:34:52.567Z,100911.98
2019-03-26T23:37:19.511Z,100914.52
2019-03-26T23:39:46.425Z,100918.34
2019-03-26T23:42:13.670Z,100920.46
2019-03-26T23:44:40.907Z,100922.16
2019-03-26T23:47:07.781Z,100929.37
2019-03-26T23:49:34.665Z,100928.50
2019-03-26T23:52:01.643Z,100933.96
2019-03-26T23:54:28.900Z,100929.70
2019-03-26T23:56:55.797Z,100932.65
2019-03-26T23:59:22.732Z,100932.27
